sensor_id;sensor_type;location;lat;lon;timestamp;P1;durP1;ratioP1;P2;durP2;ratioP2
17832;SDS011;9041;49.718;21.798;2023-03-01T00:01:06;76.27;;;24.40;;
17832;SDS011;9041;49.718;21.798;2023-03-01T00:03:35;119.67;;;30.47;;
17832;SDS011;9041;49.718;21.798;2023-03-01T00:06:02;154.77;;;36.07;;
17832;SDS011;9041;49.718;21.798;2023-03-01T00:08:31;105.43;;;29.20;;
17832;SDS011;9041;49.718;21.798;2023-03-01T00:11:00;81.30;;;23.67;;
17832;SDS011;9041;49.718;21.798;2023-03-01T00:13:28;103.23;;;25.90;;
17832;SDS011;9041;49.718;21.798;2023-03-01T00:15:55;50.40;;;18.03;;
17832;SDS011;9041;49.718;21.798;2023-03-01T00:18:22;59.27;;;20.50;;
17832;SDS011;9041;49.718;21.798;2023-03-01T00:20:52;47.90;;;16.63;;
17832;SDS011;9041;49.718;21.798;2023-03-01T00:23:19;66.00;;;20.57;;
17832;SDS011;9041;49.718;21.798;2023-03-01T00:25:47;101.43;;;26.80;;
17832;SDS011;9041;49.718;21.798;2023-03-01T00:28:15;80.07;;;23.57;;
17832;SDS011;9041;49.718;21.798;2023-03-01T00:30:42;59.40;;;19.83;;
17832;SDS011;9041;49.718;21.798;2023-03-01T00:33:09;89.97;;;26.13;;
17832;SDS011;9041;49.718;21.798;2023-03-01T00:35:36;47.67;;;18.50;;
17832;SDS011;9041;49.718;21.798;2023-03-01T00:38:03;91.40;;;27.53;;
17832;SDS011;9041;49.718;21.798;2023-03-01T00:40:31;84.47;;;26.10;;
17832;SDS011;9041;49.718;21.798;2023-03-01T00:43:01;61.07;;;21.00;;
17832;SDS011;9041;49.718;21.798;2023-03-01T00:45:29;70.77;;;22.40;;
17832;SDS011;9041;49.718;21.798;2023-03-01T00:47:56;70.67;;;22.40;;
17832;SDS011;9041;49.718;21.798;2023-03-01T00:50:23;46.50;;;17.03;;
17832;SDS011;9041;49.718;21.798;2023-03-01T00:52:52;32.40;;;13.83;;
17832;SDS011;9041;49.718;21.798;2023-03-01T00:55:19;37.67;;;14.13;;
17832;SDS011;9041;49.718;21.798;2023-03-01T00:57:47;37.53;;;14.67;;
17832;SDS011;9041;49.718;21.798;2023-03-01T01:00:16;33.97;;;14.10;;
17832;SDS011;9041;49.718;21.798;2023-03-01T01:02:44;38.60;;;13.67;;
17832;SDS011;9041;49.718;21.798;2023-03-01T01:05:11;36.13;;;15.20;;
17832;SDS011;9041;49.718;21.798;2023-03-01T01:07:38;47.20;;;13.90;;
17832;SDS011;9041;49.718;21.798;2023-03-01T01:10:05;38.47;;;13.07;;
17832;SDS011;9041;49.718;21.798;2023-03-01T01:12:32;32.17;;;11.77;;
17832;SDS011;9041;49.718;21.798;2023-03-01T01:14:59;33.13;;;13.03;;
17832;SDS011;9041;49.718;21.798;2023-03-01T01:17:27;31.97;;;12.40;;
17832;SDS011;9041;49.718;21.798;2023-03-01T01:19:54;30.57;;;12.17;;
17832;SDS011;9041;49.718;21.798;2023-03-01T01:22:21;34.07;;;11.50;;
17832;SDS011;9041;49.718;21.798;2023-03-01T01:24:48;27.17;;;11.47;;
17832;SDS011;9041;49.718;21.798;2023-03-01T01:27:15;27.40;;;11.17;;
17832;SDS011;9041;49.718;21.798;2023-03-01T01:29:42;29.37;;;11.80;;
17832;SDS011;9041;49.718;21.798;2023-03-01T01:32:09;22.13;;;10.37;;
17832;SDS011;9041;49.718;21.798;2023-03-01T01:34:39;27.23;;;11.33;;
17832;SDS011;9041;49.718;21.798;2023-03-01T01:37:06;26.47;;;10.43;;
17832;SDS011;9041;49.718;21.798;2023-03-01T01:39:34;22.37;;;9.87;;
17832;SDS011;9041;49.718;21.798;2023-03-01T01:42:01;24.10;;;9.53;;
17832;SDS011;9041;49.718;21.798;2023-03-01T01:44:28;24.37;;;9.37;;
17832;SDS011;9041;49.718;21.798;2023-03-01T01:46:55;23.03;;;10.10;;
17832;SDS011;9041;49.718;21.798;2023-03-01T01:49:25;29.73;;;10.60;;
17832;SDS011;9041;49.718;21.798;2023-03-01T01:51:57;32.53;;;10.93;;
17832;SDS011;9041;49.718;21.798;2023-03-01T01:54:28;28.50;;;10.17;;
17832;SDS011;9041;49.718;21.798;2023-03-01T01:57:00;23.40;;;9.93;;
17832;SDS011;9041;49.718;21.798;2023-03-01T01:59:29;26.67;;;10.50;;
17832;SDS011;9041;49.718;21.798;2023-03-01T02:01:58;28.60;;;10.47;;
17832;SDS011;9041;49.718;21.798;2023-03-01T02:04:26;29.43;;;11.67;;
17832;SDS011;9041;49.718;21.798;2023-03-01T02:06:53;28.70;;;10.73;;
17832;SDS011;9041;49.718;21.798;2023-03-01T02:09:27;29.47;;;10.43;;
17832;SDS011;9041;49.718;21.798;2023-03-01T02:11:55;30.27;;;10.97;;
17832;SDS011;9041;49.718;21.798;2023-03-01T02:14:21;29.27;;;11.27;;
17832;SDS011;9041;49.718;21.798;2023-03-01T02:16:48;23.57;;;11.17;;
17832;SDS011;9041;49.718;21.798;2023-03-01T02:19:26;26.73;;;11.00;;
17832;SDS011;9041;49.718;21.798;2023-03-01T02:22:01;26.77;;;9.90;;
17832;SDS011;9041;49.718;21.798;2023-03-01T02:24:32;26.43;;;10.07;;
17832;SDS011;9041;49.718;21.798;2023-03-01T02:27:04;21.43;;;9.40;;
17832;SDS011;9041;49.718;21.798;2023-03-01T02:29:32;19.23;;;9.20;;
17832;SDS011;9041;49.718;21.798;2023-03-01T02:32:00;18.10;;;7.97;;
17832;SDS011;9041;49.718;21.798;2023-03-01T02:34:28;19.07;;;8.67;;
17832;SDS011;9041;49.718;21.798;2023-03-01T02:36:58;19.53;;;7.80;;
17832;SDS011;9041;49.718;21.798;2023-03-01T02:39:30;22.07;;;8.27;;
17832;SDS011;9041;49.718;21.798;2023-03-01T02:41:59;17.97;;;8.10;;
17832;SDS011;9041;49.718;21.798;2023-03-01T02:44:27;17.47;;;8.60;;
17832;SDS011;9041;49.718;21.798;2023-03-01T02:46:56;21.17;;;8.73;;
17832;SDS011;9041;49.718;21.798;2023-03-01T02:49:24;19.23;;;8.57;;
17832;SDS011;9041;49.718;21.798;2023-03-01T02:54:39;21.93;;;8.93;;
17832;SDS011;9041;49.718;21.798;2023-03-01T02:57:08;26.10;;;9.57;;
17832;SDS011;9041;49.718;21.798;2023-03-01T02:59:36;17.90;;;8.47;;
17832;SDS011;9041;49.718;21.798;2023-03-01T03:02:07;21.57;;;9.13;;
17832;SDS011;9041;49.718;21.798;2023-03-01T03:04:34;20.83;;;9.10;;
17832;SDS011;9041;49.718;21.798;2023-03-01T03:07:01;23.27;;;9.27;;
17832;SDS011;9041;49.718;21.798;2023-03-01T03:09:28;24.63;;;9.30;;
17832;SDS011;9041;49.718;21.798;2023-03-01T03:11:55;27.30;;;10.37;;
17832;SDS011;9041;49.718;21.798;2023-03-01T03:14:21;27.40;;;10.13;;
17832;SDS011;9041;49.718;21.798;2023-03-01T03:16:49;26.90;;;10.70;;
17832;SDS011;9041;49.718;21.798;2023-03-01T03:19:19;24.83;;;9.93;;
17832;SDS011;9041;49.718;21.798;2023-03-01T03:21:46;26.03;;;9.77;;
17832;SDS011;9041;49.718;21.798;2023-03-01T03:24:13;24.50;;;9.93;;
17832;SDS011;9041;49.718;21.798;2023-03-01T03:26:40;25.67;;;10.67;;
17832;SDS011;9041;49.718;21.798;2023-03-01T03:29:06;32.10;;;10.93;;
17832;SDS011;9041;49.718;21.798;2023-03-01T03:31:33;29.40;;;11.10;;
17832;SDS011;9041;49.718;21.798;2023-03-01T03:34:00;31.47;;;12.40;;
17832;SDS011;9041;49.718;21.798;2023-03-01T03:36:28;27.33;;;11.47;;
17832;SDS011;9041;49.718;21.798;2023-03-01T03:38:56;33.13;;;12.63;;
17832;SDS011;9041;49.718;21.798;2023-03-01T03:41:22;29.90;;;11.90;;
17832;SDS011;9041;49.718;21.798;2023-03-01T03:43:49;36.30;;;13.03;;
17832;SDS011;9041;49.718;21.798;2023-03-01T03:46:16;29.40;;;12.53;;
17832;SDS011;9041;49.718;21.798;2023-03-01T03:48:43;32.93;;;12.47;;
17832;SDS011;9041;49.718;21.798;2023-03-01T03:51:11;36.67;;;14.87;;
17832;SDS011;9041;49.718;21.798;2023-03-01T03:53:40;30.63;;;13.00;;
17832;SDS011;9041;49.718;21.798;2023-03-01T03:56:07;30.17;;;11.80;;
17832;SDS011;9041;49.718;21.798;2023-03-01T03:58:35;39.77;;;14.53;;
17832;SDS011;9041;49.718;21.798;2023-03-01T04:01:02;37.97;;;14.77;;
17832;SDS011;9041;49.718;21.798;2023-03-01T04:03:29;42.77;;;15.83;;
17832;SDS011;9041;49.718;21.798;2023-03-01T04:05:58;34.73;;;14.03;;
17832;SDS011;9041;49.718;21.798;2023-03-01T04:08:26;31.37;;;11.70;;
17832;SDS011;9041;49.718;21.798;2023-03-01T04:10:58;31.77;;;13.33;;
17832;SDS011;9041;49.718;21.798;2023-03-01T04:13:46;36.80;;;12.07;;
17832;SDS011;9041;49.718;21.798;2023-03-01T04:16:13;34.43;;;13.37;;
17832;SDS011;9041;49.718;21.798;2023-03-01T04:18:40;32.40;;;13.03;;
17832;SDS011;9041;49.718;21.798;2023-03-01T04:21:07;97.23;;;29.13;;
17832;SDS011;9041;49.718;21.798;2023-03-01T04:23:33;91.83;;;27.57;;
17832;SDS011;9041;49.718;21.798;2023-03-01T04:26:02;44.40;;;16.47;;
17832;SDS011;9041;49.718;21.798;2023-03-01T04:28:30;37.13;;;13.63;;
17832;SDS011;9041;49.718;21.798;2023-03-01T04:31:01;36.37;;;15.03;;
17832;SDS011;9041;49.718;21.798;2023-03-01T04:33:37;34.80;;;14.77;;
17832;SDS011;9041;49.718;21.798;2023-03-01T04:36:05;40.20;;;15.57;;
17832;SDS011;9041;49.718;21.798;2023-03-01T04:38:34;37.87;;;14.90;;
17832;SDS011;9041;49.718;21.798;2023-03-01T04:41:03;44.93;;;16.10;;
17832;SDS011;9041;49.718;21.798;2023-03-01T04:43:31;46.63;;;15.13;;
17832;SDS011;9041;49.718;21.798;2023-03-01T04:46:02;31.37;;;12.10;;
17832;SDS011;9041;49.718;21.798;2023-03-01T04:48:29;34.53;;;12.80;;
17832;SDS011;9041;49.718;21.798;2023-03-01T04:50:57;26.47;;;11.60;;
17832;SDS011;9041;49.718;21.798;2023-03-01T04:53:24;33.43;;;11.80;;
17832;SDS011;9041;49.718;21.798;2023-03-01T04:55:51;43.97;;;15.23;;
17832;SDS011;9041;49.718;21.798;2023-03-01T04:58:19;238.00;;;47.83;;
17832;SDS011;9041;49.718;21.798;2023-03-01T05:00:46;59.57;;;19.93;;
17832;SDS011;9041;49.718;21.798;2023-03-01T05:03:13;122.77;;;30.97;;
17832;SDS011;9041;49.718;21.798;2023-03-01T05:05:43;108.63;;;26.80;;
17832;SDS011;9041;49.718;21.798;2023-03-01T05:08:11;46.73;;;16.93;;
17832;SDS011;9041;49.718;21.798;2023-03-01T05:10:43;44.10;;;15.37;;
17832;SDS011;9041;49.718;21.798;2023-03-01T05:13:12;41.50;;;14.70;;
17832;SDS011;9041;49.718;21.798;2023-03-01T05:15:47;44.40;;;15.57;;
17832;SDS011;9041;49.718;21.798;2023-03-01T05:18:14;38.17;;;15.27;;
17832;SDS011;9041;49.718;21.798;2023-03-01T05:20:41;36.43;;;14.30;;
17832;SDS011;9041;49.718;21.798;2023-03-01T05:23:09;44.07;;;15.90;;
17832;SDS011;9041;49.718;21.798;2023-03-01T05:25:36;102.33;;;26.87;;
17832;SDS011;9041;49.718;21.798;2023-03-01T05:28:05;103.60;;;27.90;;
17832;SDS011;9041;49.718;21.798;2023-03-01T05:30:33;97.27;;;26.40;;
17832;SDS011;9041;49.718;21.798;2023-03-01T05:33:01;74.30;;;22.93;;
17832;SDS011;9041;49.718;21.798;2023-03-01T05:35:28;43.27;;;16.87;;
17832;SDS011;9041;49.718;21.798;2023-03-01T05:37:57;42.70;;;16.83;;
17832;SDS011;9041;49.718;21.798;2023-03-01T05:40:24;40.43;;;16.43;;
17832;SDS011;9041;49.718;21.798;2023-03-01T05:42:52;39.97;;;15.13;;
17832;SDS011;9041;49.718;21.798;2023-03-01T05:45:21;35.93;;;15.07;;
17832;SDS011;9041;49.718;21.798;2023-03-01T05:47:49;50.83;;;16.27;;
17832;SDS011;9041;49.718;21.798;2023-03-01T05:50:18;61.90;;;20.37;;
17832;SDS011;9041;49.718;21.798;2023-03-01T05:52:46;52.87;;;17.67;;
17832;SDS011;9041;49.718;21.798;2023-03-01T05:55:13;53.20;;;18.17;;
17832;SDS011;9041;49.718;21.798;2023-03-01T05:57:44;51.37;;;19.57;;
17832;SDS011;9041;49.718;21.798;2023-03-01T06:00:13;58.30;;;22.50;;
17832;SDS011;9041;49.718;21.798;2023-03-01T06:02:41;69.03;;;22.90;;
17832;SDS011;9041;49.718;21.798;2023-03-01T06:05:08;61.53;;;24.50;;
17832;SDS011;9041;49.718;21.798;2023-03-01T06:07:37;234.90;;;56.10;;
17832;SDS011;9041;49.718;21.798;2023-03-01T06:10:05;84.20;;;27.73;;
17832;SDS011;9041;49.718;21.798;2023-03-01T06:12:33;74.80;;;25.90;;
17832;SDS011;9041;49.718;21.798;2023-03-01T06:15:00;87.43;;;29.00;;
17832;SDS011;9041;49.718;21.798;2023-03-01T06:17:29;122.30;;;40.73;;
17832;SDS011;9041;49.718;21.798;2023-03-01T06:19:56;88.80;;;28.23;;
17832;SDS011;9041;49.718;21.798;2023-03-01T06:22:23;93.43;;;30.03;;
17832;SDS011;9041;49.718;21.798;2023-03-01T06:24:51;118.63;;;34.43;;
17832;SDS011;9041;49.718;21.798;2023-03-01T06:27:18;116.53;;;35.87;;
17832;SDS011;9041;49.718;21.798;2023-03-01T06:29:45;110.13;;;33.60;;
17832;SDS011;9041;49.718;21.798;2023-03-01T06:32:12;142.50;;;39.47;;
17832;SDS011;9041;49.718;21.798;2023-03-01T06:34:39;139.10;;;40.50;;
17832;SDS011;9041;49.718;21.798;2023-03-01T06:37:05;161.63;;;40.80;;
17832;SDS011;9041;49.718;21.798;2023-03-01T06:39:35;156.80;;;42.00;;
17832;SDS011;9041;49.718;21.798;2023-03-01T06:42:05;141.63;;;41.00;;
17832;SDS011;9041;49.718;21.798;2023-03-01T06:44:35;139.77;;;41.53;;
17832;SDS011;9041;49.718;21.798;2023-03-01T06:47:01;163.17;;;40.97;;
17832;SDS011;9041;49.718;21.798;2023-03-01T06:49:29;153.20;;;38.70;;
17832;SDS011;9041;49.718;21.798;2023-03-01T06:51:56;158.00;;;43.57;;
17832;SDS011;9041;49.718;21.798;2023-03-01T06:54:23;144.30;;;40.93;;
17832;SDS011;9041;49.718;21.798;2023-03-01T06:56:50;135.23;;;38.33;;
17832;SDS011;9041;49.718;21.798;2023-03-01T06:59:18;138.47;;;39.00;;
17832;SDS011;9041;49.718;21.798;2023-03-01T07:01:45;161.60;;;45.03;;
17832;SDS011;9041;49.718;21.798;2023-03-01T07:04:12;171.90;;;48.40;;
17832;SDS011;9041;49.718;21.798;2023-03-01T07:06:39;187.33;;;52.90;;
17832;SDS011;9041;49.718;21.798;2023-03-01T07:09:06;157.17;;;50.47;;
17832;SDS011;9041;49.718;21.798;2023-03-01T07:11:33;184.87;;;49.40;;
17832;SDS011;9041;49.718;21.798;2023-03-01T07:14:00;181.30;;;50.80;;
17832;SDS011;9041;49.718;21.798;2023-03-01T07:16:29;190.17;;;50.27;;
17832;SDS011;9041;49.718;21.798;2023-03-01T07:18:55;165.80;;;50.77;;
17832;SDS011;9041;49.718;21.798;2023-03-01T07:21:22;185.40;;;52.20;;
17832;SDS011;9041;49.718;21.798;2023-03-01T07:23:49;174.60;;;48.77;;
17832;SDS011;9041;49.718;21.798;2023-03-01T07:26:16;186.93;;;53.30;;
17832;SDS011;9041;49.718;21.798;2023-03-01T07:28:43;162.13;;;48.07;;
17832;SDS011;9041;49.718;21.798;2023-03-01T07:31:09;154.73;;;45.70;;
17832;SDS011;9041;49.718;21.798;2023-03-01T07:33:37;146.00;;;45.73;;
17832;SDS011;9041;49.718;21.798;2023-03-01T07:36:05;153.13;;;48.67;;
17832;SDS011;9041;49.718;21.798;2023-03-01T07:38:32;154.10;;;48.33;;
17832;SDS011;9041;49.718;21.798;2023-03-01T07:41:00;150.53;;;48.03;;
17832;SDS011;9041;49.718;21.798;2023-03-01T07:43:28;168.73;;;49.70;;
17832;SDS011;9041;49.718;21.798;2023-03-01T07:45:57;168.33;;;52.50;;
17832;SDS011;9041;49.718;21.798;2023-03-01T07:48:24;168.60;;;53.57;;
17832;SDS011;9041;49.718;21.798;2023-03-01T07:50:53;167.77;;;50.83;;
17832;SDS011;9041;49.718;21.798;2023-03-01T07:53:19;136.30;;;47.10;;
17832;SDS011;9041;49.718;21.798;2023-03-01T07:55:46;134.50;;;46.40;;
17832;SDS011;9041;49.718;21.798;2023-03-01T07:58:15;142.37;;;47.57;;
17832;SDS011;9041;49.718;21.798;2023-03-01T08:00:42;154.40;;;49.37;;
17832;SDS011;9041;49.718;21.798;2023-03-01T08:03:09;180.07;;;57.73;;
17832;SDS011;9041;49.718;21.798;2023-03-01T08:05:36;133.53;;;45.20;;
17832;SDS011;9041;49.718;21.798;2023-03-01T08:08:05;140.37;;;48.50;;
17832;SDS011;9041;49.718;21.798;2023-03-01T08:10:32;226.13;;;65.70;;
17832;SDS011;9041;49.718;21.798;2023-03-01T08:12:59;124.63;;;44.23;;
17832;SDS011;9041;49.718;21.798;2023-03-01T08:15:26;152.37;;;48.80;;
17832;SDS011;9041;49.718;21.798;2023-03-01T08:17:52;146.73;;;48.53;;
17832;SDS011;9041;49.718;21.798;2023-03-01T08:20:19;116.60;;;42.90;;
17832;SDS011;9041;49.718;21.798;2023-03-01T08:22:46;133.50;;;48.17;;
17832;SDS011;9041;49.718;21.798;2023-03-01T08:25:15;132.47;;;47.90;;
17832;SDS011;9041;49.718;21.798;2023-03-01T08:27:45;131.77;;;48.63;;
17832;SDS011;9041;49.718;21.798;2023-03-01T08:30:12;127.73;;;45.27;;
17832;SDS011;9041;49.718;21.798;2023-03-01T08:32:40;125.83;;;45.87;;
17832;SDS011;9041;49.718;21.798;2023-03-01T08:35:07;125.07;;;47.17;;
17832;SDS011;9041;49.718;21.798;2023-03-01T08:37:34;131.70;;;48.83;;
17832;SDS011;9041;49.718;21.798;2023-03-01T08:40:01;122.43;;;41.77;;
17832;SDS011;9041;49.718;21.798;2023-03-01T08:42:33;142.70;;;47.90;;
17832;SDS011;9041;49.718;21.798;2023-03-01T08:45:00;119.70;;;46.37;;
17832;SDS011;9041;49.718;21.798;2023-03-01T08:47:27;93.53;;;37.17;;
17832;SDS011;9041;49.718;21.798;2023-03-01T08:49:55;124.00;;;44.50;;
17832;SDS011;9041;49.718;21.798;2023-03-01T08:52:22;110.57;;;42.33;;
17832;SDS011;9041;49.718;21.798;2023-03-01T08:54:49;126.30;;;47.23;;
17832;SDS011;9041;49.718;21.798;2023-03-01T08:57:16;109.10;;;42.13;;
17832;SDS011;9041;49.718;21.798;2023-03-01T08:59:46;125.83;;;46.73;;
17832;SDS011;9041;49.718;21.798;2023-03-01T09:02:15;129.60;;;45.63;;
17832;SDS011;9041;49.718;21.798;2023-03-01T09:04:44;223.03;;;72.57;;
17832;SDS011;9041;49.718;21.798;2023-03-01T09:07:10;156.70;;;54.30;;
17832;SDS011;9041;49.718;21.798;2023-03-01T09:09:37;118.73;;;45.30;;
17832;SDS011;9041;49.718;21.798;2023-03-01T09:12:04;130.07;;;47.60;;
17832;SDS011;9041;49.718;21.798;2023-03-01T09:14:31;87.43;;;36.57;;
17832;SDS011;9041;49.718;21.798;2023-03-01T09:17:01;92.40;;;36.97;;
17832;SDS011;9041;49.718;21.798;2023-03-01T09:19:28;116.17;;;43.63;;
17832;SDS011;9041;49.718;21.798;2023-03-01T09:21:55;100.07;;;40.60;;
17832;SDS011;9041;49.718;21.798;2023-03-01T09:24:23;80.23;;;31.73;;
17832;SDS011;9041;49.718;21.798;2023-03-01T09:26:53;57.53;;;25.03;;
17832;SDS011;9041;49.718;21.798;2023-03-01T09:29:20;63.60;;;27.83;;
17832;SDS011;9041;49.718;21.798;2023-03-01T09:31:47;54.67;;;24.27;;
17832;SDS011;9041;49.718;21.798;2023-03-01T09:34:15;61.50;;;25.53;;
17832;SDS011;9041;49.718;21.798;2023-03-01T09:36:48;54.33;;;23.07;;
17832;SDS011;9041;49.718;21.798;2023-03-01T09:39:15;57.57;;;24.03;;
17832;SDS011;9041;49.718;21.798;2023-03-01T09:41:45;68.17;;;30.83;;
17832;SDS011;9041;49.718;21.798;2023-03-01T09:44:18;55.13;;;27.87;;
17832;SDS011;9041;49.718;21.798;2023-03-01T09:46:52;66.77;;;33.93;;
17832;SDS011;9041;49.718;21.798;2023-03-01T09:49:25;89.17;;;48.20;;
17832;SDS011;9041;49.718;21.798;2023-03-01T09:51:55;90.67;;;52.67;;
17832;SDS011;9041;49.718;21.798;2023-03-01T09:54:25;66.93;;;33.20;;
17832;SDS011;9041;49.718;21.798;2023-03-01T10:02:35;50.07;;;22.80;;
17832;SDS011;9041;49.718;21.798;2023-03-01T10:05:19;60.17;;;26.73;;
17832;SDS011;9041;49.718;21.798;2023-03-01T10:08:04;57.20;;;24.30;;
17832;SDS011;9041;49.718;21.798;2023-03-01T10:10:41;67.97;;;30.30;;
17832;SDS011;9041;49.718;21.798;2023-03-01T10:13:13;62.50;;;26.80;;
17832;SDS011;9041;49.718;21.798;2023-03-01T10:15:44;56.70;;;23.67;;
17832;SDS011;9041;49.718;21.798;2023-03-01T10:18:15;56.37;;;23.10;;
17832;SDS011;9041;49.718;21.798;2023-03-01T10:20:46;55.50;;;24.83;;
17832;SDS011;9041;49.718;21.798;2023-03-01T10:23:17;62.03;;;27.97;;
17832;SDS011;9041;49.718;21.798;2023-03-01T10:25:50;58.93;;;27.40;;
17832;SDS011;9041;49.718;21.798;2023-03-01T10:28:25;70.27;;;33.37;;
17832;SDS011;9041;49.718;21.798;2023-03-01T10:30:54;55.87;;;26.60;;
17832;SDS011;9041;49.718;21.798;2023-03-01T10:33:22;67.87;;;32.23;;
17832;SDS011;9041;49.718;21.798;2023-03-01T10:35:51;51.60;;;22.95;;
17832;SDS011;9041;49.718;21.798;2023-03-01T10:38:18;49.15;;;22.50;;
17832;SDS011;9041;49.718;21.798;2023-03-01T10:40:51;64.80;;;33.63;;
17832;SDS011;9041;49.718;21.798;2023-03-01T10:43:19;51.05;;;22.88;;
17832;SDS011;9041;49.718;21.798;2023-03-01T10:45:47;45.38;;;20.77;;
17832;SDS011;9041;49.718;21.798;2023-03-01T10:48:15;47.08;;;21.50;;
17832;SDS011;9041;49.718;21.798;2023-03-01T10:50:43;44.03;;;19.42;;
17832;SDS011;9041;49.718;21.798;2023-03-01T10:53:26;38.95;;;18.15;;
17832;SDS011;9041;49.718;21.798;2023-03-01T10:55:58;40.92;;;18.42;;
17832;SDS011;9041;49.718;21.798;2023-03-01T10:58:27;41.78;;;19.23;;
17832;SDS011;9041;49.718;21.798;2023-03-01T11:00:55;47.08;;;23.20;;
17832;SDS011;9041;49.718;21.798;2023-03-01T11:03:24;41.65;;;18.92;;
17832;SDS011;9041;49.718;21.798;2023-03-01T11:05:58;47.92;;;22.60;;
17832;SDS011;9041;49.718;21.798;2023-03-01T11:08:33;51.03;;;25.77;;
17832;SDS011;9041;49.718;21.798;2023-03-01T11:14:00;34.60;;;18.60;;
17832;SDS011;9041;49.718;21.798;2023-03-01T11:16:33;37.03;;;17.10;;
17832;SDS011;9041;49.718;21.798;2023-03-01T11:19:14;116.30;;;45.78;;
17832;SDS011;9041;49.718;21.798;2023-03-01T11:21:49;92.97;;;36.28;;
17832;SDS011;9041;49.718;21.798;2023-03-01T11:24:21;55.40;;;26.85;;
17832;SDS011;9041;49.718;21.798;2023-03-01T11:26:53;40.30;;;18.60;;
17832;SDS011;9041;49.718;21.798;2023-03-01T11:29:27;41.15;;;18.85;;
17832;SDS011;9041;49.718;21.798;2023-03-01T11:32:01;136.40;;;43.25;;
17832;SDS011;9041;49.718;21.798;2023-03-01T11:34:38;41.60;;;18.27;;
17832;SDS011;9041;49.718;21.798;2023-03-01T11:37:11;60.63;;;25.05;;
17832;SDS011;9041;49.718;21.798;2023-03-01T11:39:46;40.50;;;18.20;;
17832;SDS011;9041;49.718;21.798;2023-03-01T11:42:24;46.75;;;21.52;;
17832;SDS011;9041;49.718;21.798;2023-03-01T11:44:54;222.20;;;78.60;;
17832;SDS011;9041;49.718;21.798;2023-03-01T11:47:25;49.65;;;22.10;;
17832;SDS011;9041;49.718;21.798;2023-03-01T11:50:00;37.97;;;17.58;;
17832;SDS011;9041;49.718;21.798;2023-03-01T11:52:35;40.65;;;19.25;;
17832;SDS011;9041;49.718;21.798;2023-03-01T11:55:24;33.78;;;14.70;;
17832;SDS011;9041;49.718;21.798;2023-03-01T11:58:01;30.15;;;13.75;;
17832;SDS011;9041;49.718;21.798;2023-03-01T12:00:54;29.95;;;13.35;;
17832;SDS011;9041;49.718;21.798;2023-03-01T12:03:49;37.27;;;16.37;;
17832;SDS011;9041;49.718;21.798;2023-03-01T12:06:27;29.65;;;14.05;;
17832;SDS011;9041;49.718;21.798;2023-03-01T12:09:07;35.05;;;15.50;;
17832;SDS011;9041;49.718;21.798;2023-03-01T12:11:58;191.45;;;60.05;;
17832;SDS011;9041;49.718;21.798;2023-03-01T12:14:38;49.88;;;20.88;;
17832;SDS011;9041;49.718;21.798;2023-03-01T12:17:25;35.42;;;15.32;;
17832;SDS011;9041;49.718;21.798;2023-03-01T12:20:05;32.10;;;15.68;;
17832;SDS011;9041;49.718;21.798;2023-03-01T12:22:43;35.50;;;16.53;;
17832;SDS011;9041;49.718;21.798;2023-03-01T12:25:24;42.15;;;17.20;;
17832;SDS011;9041;49.718;21.798;2023-03-01T12:31:00;147.32;;;39.55;;
17832;SDS011;9041;49.718;21.798;2023-03-01T12:33:38;66.28;;;21.63;;
17832;SDS011;9041;49.718;21.798;2023-03-01T12:36:16;169.70;;;42.47;;
17832;SDS011;9041;49.718;21.798;2023-03-01T12:38:56;34.83;;;16.47;;
17832;SDS011;9041;49.718;21.798;2023-03-01T12:41:29;39.83;;;15.73;;
17832;SDS011;9041;49.718;21.798;2023-03-01T12:44:10;43.85;;;17.27;;
17832;SDS011;9041;49.718;21.798;2023-03-01T12:46:46;30.88;;;13.60;;
17832;SDS011;9041;49.718;21.798;2023-03-01T12:49:19;93.40;;;30.33;;
17832;SDS011;9041;49.718;21.798;2023-03-01T12:51:50;37.00;;;14.90;;
17832;SDS011;9041;49.718;21.798;2023-03-01T12:54:20;27.85;;;12.90;;
17832;SDS011;9041;49.718;21.798;2023-03-01T12:56:56;17.75;;;8.95;;
17832;SDS011;9041;49.718;21.798;2023-03-01T12:59:26;20.40;;;9.40;;
17832;SDS011;9041;49.718;21.798;2023-03-01T13:02:01;23.77;;;9.97;;
17832;SDS011;9041;49.718;21.798;2023-03-01T13:04:35;23.07;;;8.63;;
17832;SDS011;9041;49.718;21.798;2023-03-01T13:07:13;24.30;;;10.50;;
17832;SDS011;9041;49.718;21.798;2023-03-01T13:09:47;23.80;;;10.63;;
17832;SDS011;9041;49.718;21.798;2023-03-01T13:17:56;23.90;;;10.97;;
17832;SDS011;9041;49.718;21.798;2023-03-01T13:20:25;24.03;;;10.37;;
17832;SDS011;9041;49.718;21.798;2023-03-01T13:23:01;23.97;;;10.47;;
17832;SDS011;9041;49.718;21.798;2023-03-01T13:25:30;21.07;;;10.20;;
17832;SDS011;9041;49.718;21.798;2023-03-01T13:30:57;22.80;;;9.33;;
17832;SDS011;9041;49.718;21.798;2023-03-01T13:39:27;23.90;;;9.53;;
17832;SDS011;9041;49.718;21.798;2023-03-01T13:41:58;20.67;;;9.13;;
17832;SDS011;9041;49.718;21.798;2023-03-01T13:44:26;20.70;;;8.10;;
17832;SDS011;9041;49.718;21.798;2023-03-01T13:47:07;17.63;;;7.47;;
17832;SDS011;9041;49.718;21.798;2023-03-01T13:49:43;14.97;;;7.73;;
17832;SDS011;9041;49.718;21.798;2023-03-01T13:52:25;16.73;;;7.93;;
17832;SDS011;9041;49.718;21.798;2023-03-01T13:55:03;19.70;;;7.90;;
17832;SDS011;9041;49.718;21.798;2023-03-01T13:57:33;16.33;;;7.93;;
17832;SDS011;9041;49.718;21.798;2023-03-01T14:00:01;17.87;;;8.47;;
17832;SDS011;9041;49.718;21.798;2023-03-01T14:02:31;20.67;;;9.60;;
17832;SDS011;9041;49.718;21.798;2023-03-01T14:04:59;23.17;;;9.60;;
17832;SDS011;9041;49.718;21.798;2023-03-01T14:07:27;23.77;;;10.00;;
17832;SDS011;9041;49.718;21.798;2023-03-01T14:09:56;24.87;;;10.93;;
17832;SDS011;9041;49.718;21.798;2023-03-01T14:12:32;26.27;;;10.67;;
17832;SDS011;9041;49.718;21.798;2023-03-01T14:15:06;31.03;;;10.40;;
17832;SDS011;9041;49.718;21.798;2023-03-01T14:17:49;32.03;;;13.30;;
17832;SDS011;9041;49.718;21.798;2023-03-01T14:20:30;26.37;;;9.67;;
17832;SDS011;9041;49.718;21.798;2023-03-01T14:22:58;24.23;;;10.17;;
17832;SDS011;9041;49.718;21.798;2023-03-01T14:25:27;21.10;;;9.60;;
17832;SDS011;9041;49.718;21.798;2023-03-01T14:27:57;41.07;;;14.17;;
17832;SDS011;9041;49.718;21.798;2023-03-01T14:30:27;33.57;;;12.70;;
17832;SDS011;9041;49.718;21.798;2023-03-01T14:32:59;32.53;;;11.63;;
17832;SDS011;9041;49.718;21.798;2023-03-01T14:35:28;40.70;;;14.20;;
17832;SDS011;9041;49.718;21.798;2023-03-01T14:37:57;33.77;;;12.53;;
17832;SDS011;9041;49.718;21.798;2023-03-01T14:40:25;86.73;;;23.17;;
17832;SDS011;9041;49.718;21.798;2023-03-01T14:42:54;43.00;;;15.30;;
17832;SDS011;9041;49.718;21.798;2023-03-01T14:45:22;40.83;;;13.17;;
17832;SDS011;9041;49.718;21.798;2023-03-01T14:47:51;28.13;;;10.03;;
17832;SDS011;9041;49.718;21.798;2023-03-01T14:50:23;29.83;;;11.70;;
17832;SDS011;9041;49.718;21.798;2023-03-01T14:52:52;23.00;;;9.37;;
17832;SDS011;9041;49.718;21.798;2023-03-01T14:55:21;21.20;;;9.83;;
17832;SDS011;9041;49.718;21.798;2023-03-01T14:57:51;38.33;;;13.93;;
17832;SDS011;9041;49.718;21.798;2023-03-01T15:00:19;30.27;;;12.67;;
17832;SDS011;9041;49.718;21.798;2023-03-01T15:02:47;30.83;;;11.83;;
17832;SDS011;9041;49.718;21.798;2023-03-01T15:05:15;23.47;;;10.77;;